Lacerta — 9HA4246 — position and weather

sailwx.info

Track history (hours):
 
Tides and Currents Weather Stations Pressure Air Temp Water Temp Dewpoint Dewpoint Depression Visibility Wind Speed Wind Dir Waves Ship Positions

Lacerta

Last reported at 2018-Aug-05 17:41 UTC. Time now 2018-Aug-14 19:27 UTC.
Position N 03°57' E 002°13'.
Warning: this ship's position is 9 days out of date.

Length 183 m; draft 11.1 m.

Type: Tanker. MMSI: 249440000.

Date/timePositionNaut miles runAvg speedWind from/ knotsBaromVisibWave heightAir tempDewpointWater temp
2018-Aug-05 17:41N 03°57' E 002°13'  
2018-Jul-30 08:13N 23°46' W 016°50'314.6
2018-Jul-30 07:59N 23°49' W 016°48'17814.6
2018-Jul-29 19:47N 26°15' W 014°55'1314.3
2018-Jul-29 18:51N 26°26' W 014°46'614.2
2018-Jul-29 18:27N 26°30' W 014°43'614.3
2018-Jul-29 18:01N 26°35' W 014°38'714.2
2018-Jul-29 17:30N 26°41' W 014°34'1014.3
2018-Jul-29 16:46N 26°50' W 014°27'414.3
2018-Jul-29 16:30N 26°53' W 014°24'714.1
2018-Jul-29 16:00N 26°58' W 014°20'714.2
2018-Jul-29 15:30N 27°04' W 014°15'714.2
2018-Jul-29 15:00N 27°10' W 014°11'1414.1
2018-Jul-29 14:00N 27°22' W 014°01'714.3
2018-Jul-29 13:30N 27°27' W 013°56'714.8
2018-Jul-29 13:01N 27°33' W 013°52'815.1
2018-Jul-29 12:30N 27°39' W 013°47'714.9
2018-Jul-29 12:01N 27°45' W 013°42'814.9
2018-Jul-29 11:30N 27°52' W 013°37'714.9
2018-Jul-29 11:00N 27°58' W 013°32'714.9
2018-Jul-29 10:30N 28°04' W 013°28'714.9
2018-Jul-29 10:00N 28°10' W 013°23'714.7
2018-Jul-29 09:30N 28°16' W 013°18'714.6
2018-Jul-29 09:00N 28°22' W 013°13'814.7
2018-Jul-29 08:27N 28°29' W 013°08'714.8
2018-Jul-29 08:00N 28°35' W 013°04'815.1
2018-Jul-29 07:29N 28°42' W 012°60'714.9
2018-Jul-29 07:00N 28°48' W 012°56'815.0
2018-Jul-29 06:30N 28°54' W 012°51'815.1
2018-Jul-29 06:00N 28°60' W 012°46'815.0
2018-Jul-29 05:30N 29°06' W 012°41'815.0
2018-Jul-29 05:00N 29°13' W 012°36'714.9
2018-Jul-29 04:30N 29°19' W 012°32'815.1
2018-Jul-29 04:00N 29°25' W 012°27'815.2
2018-Jul-29 03:30N 29°31' W 012°22'815.0
2018-Jul-29 03:00N 29°38' W 012°17'914.8
2018-Jul-29 02:24N 29°45' W 012°12'1814.6
2018-Jul-29 01:12N 29°60' W 012°01'514.5
2018-Jul-29 00:49N 30°04' W 011°57'514.7
2018-Jul-29 00:29N 30°08' W 011°54'814.9
2018-Jul-28 23:55N 30°15' W 011°49'814.8
2018-Jul-28 23:25N 30°22' W 011°44'615.1
2018-Jul-28 23:00N 30°27' W 011°40'915.7
2018-Jul-28 22:26N 30°34' W 011°34'715.7
2018-Jul-28 22:00N 30°40' W 011°30'1515.2
2018-Jul-28 21:02N 30°52' W 011°20'114.8
2018-Jul-28 21:00N 30°53' W 011°20'714.9
2018-Jul-28 20:31N 30°59' W 011°15'814.8
2018-Jul-28 20:00N 31°05' W 011°10'2714.8
2018-Jul-28 18:11N 31°28' W 010°53'214.6
2018-Jul-28 18:00N 31°30' W 010°52'814.8
2018-Jul-28 17:30N 31°36' W 010°47'1214.9
2018-Jul-28 16:41N 31°46' W 010°39'29814.6
2018-Jul-27 20:18N 35°29' W 006°41'  
Track history (hours):
 
Tides and Currents Weather Stations Pressure Air Temp Water Temp Dewpoint Dewpoint Depression Visibility Wind Speed Wind Dir Waves Ship Positions

Lacerta

Last reported at 2018-Aug-05 17:41 UTC. Time now 2018-Aug-14 19:27 UTC.
Position N 03°57' E 002°13'.
Warning: this ship's position is 9 days out of date.

Length 183 m; draft 11.1 m.

Type: Tanker. MMSI: 249440000.

Date/timePositionNaut miles runAvg speedWind from/ knotsBaromVisibWave heightAir tempDewpointWater temp
2018-Aug-05 17:41N 03°57' E 002°13'  
2018-Jul-30 08:13N 23°46' W 016°50'314.6
2018-Jul-30 07:59N 23°49' W 016°48'17814.6
2018-Jul-29 19:47N 26°15' W 014°55'1314.3
2018-Jul-29 18:51N 26°26' W 014°46'614.2
2018-Jul-29 18:27N 26°30' W 014°43'614.3
2018-Jul-29 18:01N 26°35' W 014°38'714.2
2018-Jul-29 17:30N 26°41' W 014°34'1014.3
2018-Jul-29 16:46N 26°50' W 014°27'414.3
2018-Jul-29 16:30N 26°53' W 014°24'714.1
2018-Jul-29 16:00N 26°58' W 014°20'714.2
2018-Jul-29 15:30N 27°04' W 014°15'714.2
2018-Jul-29 15:00N 27°10' W 014°11'1414.1
2018-Jul-29 14:00N 27°22' W 014°01'714.3
2018-Jul-29 13:30N 27°27' W 013°56'714.8
2018-Jul-29 13:01N 27°33' W 013°52'815.1
2018-Jul-29 12:30N 27°39' W 013°47'714.9
2018-Jul-29 12:01N 27°45' W 013°42'814.9
2018-Jul-29 11:30N 27°52' W 013°37'714.9
2018-Jul-29 11:00N 27°58' W 013°32'714.9
2018-Jul-29 10:30N 28°04' W 013°28'714.9
2018-Jul-29 10:00N 28°10' W 013°23'714.7
2018-Jul-29 09:30N 28°16' W 013°18'714.6
2018-Jul-29 09:00N 28°22' W 013°13'814.7
2018-Jul-29 08:27N 28°29' W 013°08'714.8
2018-Jul-29 08:00N 28°35' W 013°04'815.1
2018-Jul-29 07:29N 28°42' W 012°60'714.9
2018-Jul-29 07:00N 28°48' W 012°56'815.0
2018-Jul-29 06:30N 28°54' W 012°51'815.1
2018-Jul-29 06:00N 28°60' W 012°46'815.0
2018-Jul-29 05:30N 29°06' W 012°41'815.0
2018-Jul-29 05:00N 29°13' W 012°36'714.9
2018-Jul-29 04:30N 29°19' W 012°32'815.1
2018-Jul-29 04:00N 29°25' W 012°27'815.2
2018-Jul-29 03:30N 29°31' W 012°22'815.0
2018-Jul-29 03:00N 29°38' W 012°17'914.8
2018-Jul-29 02:24N 29°45' W 012°12'1814.6
2018-Jul-29 01:12N 29°60' W 012°01'514.5
2018-Jul-29 00:49N 30°04' W 011°57'514.7
2018-Jul-29 00:29N 30°08' W 011°54'814.9
2018-Jul-28 23:55N 30°15' W 011°49'814.8
2018-Jul-28 23:25N 30°22' W 011°44'615.1
2018-Jul-28 23:00N 30°27' W 011°40'915.7
2018-Jul-28 22:26N 30°34' W 011°34'715.7
2018-Jul-28 22:00N 30°40' W 011°30'1515.2
2018-Jul-28 21:02N 30°52' W 011°20'114.8
2018-Jul-28 21:00N 30°53' W 011°20'714.9
2018-Jul-28 20:31N 30°59' W 011°15'814.8
2018-Jul-28 20:00N 31°05' W 011°10'2714.8
2018-Jul-28 18:11N 31°28' W 010°53'214.6
2018-Jul-28 18:00N 31°30' W 010°52'814.8
2018-Jul-28 17:30N 31°36' W 010°47'1214.9
2018-Jul-28 16:41N 31°46' W 010°39'29814.6
2018-Jul-27 20:18N 35°29' W 006°41'  

Dump ship's entire track history